Terminal Aerodrome Forecast
Issued by NWS

Home | Current Version | Previous Version | Text Only | Print | Product List | Glossary On
Versions: 1 2 3 4 5 6 7 8 9 10 11 12 13 14 15 16 17
000
FTUS44 KLIX 241743
TAFHUM
TAF
KHUM 241743Z 2418/2518 17015G24KT P6SM SCT020 BKN035
     FM242300 18013KT P6SM SCT015 BKN035
     FM250100 18010KT P6SM SCT015 BKN025
     FM250900 19006KT 4SM BR VCSH BKN008 OVC015
     FM251200 19005KT 3SM -SHRA BR VCTS OVC020CB
     FM251400 26006KT 3SM -SHRA BR VCTS OVC020CB=

USA.gov is the U.S. government's official web portal to all federal, state and local government web resources and services.